sensor_id;sensor_type;location;lat;lon;timestamp;temperature;humidity
24460;DHT22;12630;50.860;5.714;2022-10-16T00:01:26;14.50;99.90
24460;DHT22;12630;50.860;5.714;2022-10-16T00:03:54;14.50;99.90
24460;DHT22;12630;50.860;5.714;2022-10-16T00:06:21;14.50;99.90
24460;DHT22;12630;50.860;5.714;2022-10-16T00:08:49;14.40;99.90
24460;DHT22;12630;50.860;5.714;2022-10-16T00:11:20;14.50;99.90
24460;DHT22;12630;50.860;5.714;2022-10-16T00:13:48;14.50;99.90
24460;DHT22;12630;50.860;5.714;2022-10-16T00:16:16;14.50;99.90
24460;DHT22;12630;50.860;5.714;2022-10-16T00:18:44;14.40;99.90
24460;DHT22;12630;50.860;5.714;2022-10-16T00:21:13;14.40;99.90
24460;DHT22;12630;50.860;5.714;2022-10-16T00:23:41;14.50;99.90
24460;DHT22;12630;50.860;5.714;2022-10-16T00:26:11;14.40;99.90
24460;DHT22;12630;50.860;5.714;2022-10-16T00:28:40;14.30;99.90
24460;DHT22;12630;50.860;5.714;2022-10-16T00:31:09;14.30;99.90
24460;DHT22;12630;50.860;5.714;2022-10-16T00:33:38;14.20;99.90
24460;DHT22;12630;50.860;5.714;2022-10-16T00:36:06;14.10;99.90
24460;DHT22;12630;50.860;5.714;2022-10-16T00:38:34;14.30;99.90
24460;DHT22;12630;50.860;5.714;2022-10-16T00:41:01;14.30;99.90
24460;DHT22;12630;50.860;5.714;2022-10-16T00:43:37;14.20;99.90
24460;DHT22;12630;50.860;5.714;2022-10-16T00:46:13;14.10;99.90
24460;DHT22;12630;50.860;5.714;2022-10-16T00:48:42;14.20;99.90
24460;DHT22;12630;50.860;5.714;2022-10-16T00:51:11;14.10;99.90
24460;DHT22;12630;50.860;5.714;2022-10-16T00:53:39;14.00;99.90
24460;DHT22;12630;50.860;5.714;2022-10-16T00:56:06;14.10;99.90
24460;DHT22;12630;50.860;5.714;2022-10-16T00:58:34;14.00;99.90
24460;DHT22;12630;50.860;5.714;2022-10-16T01:01:01;14.00;99.90
24460;DHT22;12630;50.860;5.714;2022-10-16T01:03:31;14.00;99.90
24460;DHT22;12630;50.860;5.714;2022-10-16T01:06:06;14.00;99.90
24460;DHT22;12630;50.860;5.714;2022-10-16T01:08:48;14.00;99.90
24460;DHT22;12630;50.860;5.714;2022-10-16T01:11:22;14.00;99.90
24460;DHT22;12630;50.860;5.714;2022-10-16T01:13:54;14.00;99.90
24460;DHT22;12630;50.860;5.714;2022-10-16T01:16:29;13.90;99.90
24460;DHT22;12630;50.860;5.714;2022-10-16T01:19:05;13.90;99.90
24460;DHT22;12630;50.860;5.714;2022-10-16T01:21:38;13.90;99.90
24460;DHT22;12630;50.860;5.714;2022-10-16T01:24:12;13.90;99.90
24460;DHT22;12630;50.860;5.714;2022-10-16T01:27:12;13.90;99.90
24460;DHT22;12630;50.860;5.714;2022-10-16T01:29:48;13.90;99.90
24460;DHT22;12630;50.860;5.714;2022-10-16T01:32:19;13.80;99.90
24460;DHT22;12630;50.860;5.714;2022-10-16T01:34:51;13.90;99.90
24460;DHT22;12630;50.860;5.714;2022-10-16T01:37:25;13.80;99.90
24460;DHT22;12630;50.860;5.714;2022-10-16T01:39:57;13.80;99.90
24460;DHT22;12630;50.860;5.714;2022-10-16T01:42:32;13.80;99.90
24460;DHT22;12630;50.860;5.714;2022-10-16T01:45:02;13.80;99.90
24460;DHT22;12630;50.860;5.714;2022-10-16T01:47:32;14.00;99.90
24460;DHT22;12630;50.860;5.714;2022-10-16T01:50:04;14.00;99.90
24460;DHT22;12630;50.860;5.714;2022-10-16T01:52:32;14.00;99.90
24460;DHT22;12630;50.860;5.714;2022-10-16T01:55:01;14.00;99.90
24460;DHT22;12630;50.860;5.714;2022-10-16T01:57:31;14.00;99.90
24460;DHT22;12630;50.860;5.714;2022-10-16T02:00:04;14.00;99.90
24460;DHT22;12630;50.860;5.714;2022-10-16T02:02:32;14.10;99.90
24460;DHT22;12630;50.860;5.714;2022-10-16T02:05:06;14.00;99.90
24460;DHT22;12630;50.860;5.714;2022-10-16T02:07:35;14.00;99.90
24460;DHT22;12630;50.860;5.714;2022-10-16T02:10:03;14.00;99.90
24460;DHT22;12630;50.860;5.714;2022-10-16T02:12:33;14.10;99.90
24460;DHT22;12630;50.860;5.714;2022-10-16T02:15:02;14.10;99.90
24460;DHT22;12630;50.860;5.714;2022-10-16T02:17:29;14.10;99.90
24460;DHT22;12630;50.860;5.714;2022-10-16T02:19:58;14.10;99.90
24460;DHT22;12630;50.860;5.714;2022-10-16T02:22:28;14.10;99.90
24460;DHT22;12630;50.860;5.714;2022-10-16T02:24:59;14.00;99.90
24460;DHT22;12630;50.860;5.714;2022-10-16T02:27:35;13.90;99.90
24460;DHT22;12630;50.860;5.714;2022-10-16T02:30:08;13.80;99.90
24460;DHT22;12630;50.860;5.714;2022-10-16T02:32:39;13.80;99.90
24460;DHT22;12630;50.860;5.714;2022-10-16T02:35:08;13.80;99.90
24460;DHT22;12630;50.860;5.714;2022-10-16T02:37:37;13.80;99.90
24460;DHT22;12630;50.860;5.714;2022-10-16T02:40:07;13.70;99.90
24460;DHT22;12630;50.860;5.714;2022-10-16T02:42:38;13.80;99.90
24460;DHT22;12630;50.860;5.714;2022-10-16T02:45:07;13.80;99.90
24460;DHT22;12630;50.860;5.714;2022-10-16T02:47:35;13.80;99.90
24460;DHT22;12630;50.860;5.714;2022-10-16T02:50:02;13.80;99.90
24460;DHT22;12630;50.860;5.714;2022-10-16T02:52:29;13.80;99.90
24460;DHT22;12630;50.860;5.714;2022-10-16T02:54:57;13.80;99.90
24460;DHT22;12630;50.860;5.714;2022-10-16T02:57:24;13.70;99.90
24460;DHT22;12630;50.860;5.714;2022-10-16T02:59:53;13.70;99.90
24460;DHT22;12630;50.860;5.714;2022-10-16T03:02:21;13.60;99.90
24460;DHT22;12630;50.860;5.714;2022-10-16T03:04:48;13.60;99.90
24460;DHT22;12630;50.860;5.714;2022-10-16T03:07:16;13.60;99.90
24460;DHT22;12630;50.860;5.714;2022-10-16T03:09:43;13.70;99.90
24460;DHT22;12630;50.860;5.714;2022-10-16T03:12:11;13.80;99.90
24460;DHT22;12630;50.860;5.714;2022-10-16T03:14:38;13.80;99.90
24460;DHT22;12630;50.860;5.714;2022-10-16T03:17:08;13.80;99.90
24460;DHT22;12630;50.860;5.714;2022-10-16T03:19:35;13.80;99.90
24460;DHT22;12630;50.860;5.714;2022-10-16T03:22:02;13.70;99.90
24460;DHT22;12630;50.860;5.714;2022-10-16T03:24:29;13.70;99.90
24460;DHT22;12630;50.860;5.714;2022-10-16T03:26:57;13.60;99.90
24460;DHT22;12630;50.860;5.714;2022-10-16T03:29:24;13.50;99.90
24460;DHT22;12630;50.860;5.714;2022-10-16T03:31:51;13.50;99.90
24460;DHT22;12630;50.860;5.714;2022-10-16T03:34:20;13.40;99.90
24460;DHT22;12630;50.860;5.714;2022-10-16T03:36:47;13.40;99.90
24460;DHT22;12630;50.860;5.714;2022-10-16T03:39:15;13.50;99.90
24460;DHT22;12630;50.860;5.714;2022-10-16T03:41:42;13.50;99.90
24460;DHT22;12630;50.860;5.714;2022-10-16T03:44:09;13.50;99.90
24460;DHT22;12630;50.860;5.714;2022-10-16T03:46:36;13.60;99.90
24460;DHT22;12630;50.860;5.714;2022-10-16T03:49:04;13.60;99.90
24460;DHT22;12630;50.860;5.714;2022-10-16T03:51:32;13.50;99.90
24460;DHT22;12630;50.860;5.714;2022-10-16T03:54:00;13.50;99.90
24460;DHT22;12630;50.860;5.714;2022-10-16T03:56:27;13.50;99.90
24460;DHT22;12630;50.860;5.714;2022-10-16T03:58:54;13.50;99.90
24460;DHT22;12630;50.860;5.714;2022-10-16T04:01:22;13.50;99.90
24460;DHT22;12630;50.860;5.714;2022-10-16T04:03:49;13.50;99.90
24460;DHT22;12630;50.860;5.714;2022-10-16T04:06:16;13.40;99.90
24460;DHT22;12630;50.860;5.714;2022-10-16T04:08:45;13.30;99.90
24460;DHT22;12630;50.860;5.714;2022-10-16T04:11:12;13.30;99.90
24460;DHT22;12630;50.860;5.714;2022-10-16T04:13:39;13.40;99.90
24460;DHT22;12630;50.860;5.714;2022-10-16T04:16:07;13.40;99.90
24460;DHT22;12630;50.860;5.714;2022-10-16T04:18:34;13.40;99.90
24460;DHT22;12630;50.860;5.714;2022-10-16T04:21:03;13.50;99.90
24460;DHT22;12630;50.860;5.714;2022-10-16T04:23:30;13.60;99.90
24460;DHT22;12630;50.860;5.714;2022-10-16T04:26:00;13.60;99.90
24460;DHT22;12630;50.860;5.714;2022-10-16T04:28:27;13.60;99.90
24460;DHT22;12630;50.860;5.714;2022-10-16T04:30:55;13.50;99.90
24460;DHT22;12630;50.860;5.714;2022-10-16T04:33:23;13.50;99.90
24460;DHT22;12630;50.860;5.714;2022-10-16T04:35:56;13.40;99.90
24460;DHT22;12630;50.860;5.714;2022-10-16T04:38:23;13.50;99.90
24460;DHT22;12630;50.860;5.714;2022-10-16T04:40:51;13.50;99.90
24460;DHT22;12630;50.860;5.714;2022-10-16T04:43:20;13.50;99.90
24460;DHT22;12630;50.860;5.714;2022-10-16T04:45:48;13.50;99.90
24460;DHT22;12630;50.860;5.714;2022-10-16T04:48:16;13.50;99.90
24460;DHT22;12630;50.860;5.714;2022-10-16T04:50:44;13.40;99.90
24460;DHT22;12630;50.860;5.714;2022-10-16T04:53:11;13.40;99.90
24460;DHT22;12630;50.860;5.714;2022-10-16T04:55:38;13.40;99.90
24460;DHT22;12630;50.860;5.714;2022-10-16T04:58:06;13.40;99.90
24460;DHT22;12630;50.860;5.714;2022-10-16T05:00:34;13.50;99.90
24460;DHT22;12630;50.860;5.714;2022-10-16T05:03:02;13.50;99.90
24460;DHT22;12630;50.860;5.714;2022-10-16T05:05:33;13.50;99.90
24460;DHT22;12630;50.860;5.714;2022-10-16T05:08:00;13.50;99.90
24460;DHT22;12630;50.860;5.714;2022-10-16T05:10:27;13.40;99.90
24460;DHT22;12630;50.860;5.714;2022-10-16T05:12:58;13.50;99.90
24460;DHT22;12630;50.860;5.714;2022-10-16T05:15:26;13.50;99.90
24460;DHT22;12630;50.860;5.714;2022-10-16T05:17:55;13.50;99.90
24460;DHT22;12630;50.860;5.714;2022-10-16T05:20:22;13.50;99.90
24460;DHT22;12630;50.860;5.714;2022-10-16T05:22:50;13.50;99.90
24460;DHT22;12630;50.860;5.714;2022-10-16T05:25:17;13.50;99.90
24460;DHT22;12630;50.860;5.714;2022-10-16T05:27:47;13.60;99.90
24460;DHT22;12630;50.860;5.714;2022-10-16T05:30:15;13.60;99.90
24460;DHT22;12630;50.860;5.714;2022-10-16T05:32:46;13.60;99.90
24460;DHT22;12630;50.860;5.714;2022-10-16T05:35:16;13.50;99.90
24460;DHT22;12630;50.860;5.714;2022-10-16T05:37:43;13.40;99.90
24460;DHT22;12630;50.860;5.714;2022-10-16T05:40:11;13.50;99.90
24460;DHT22;12630;50.860;5.714;2022-10-16T05:42:39;13.50;99.90
24460;DHT22;12630;50.860;5.714;2022-10-16T05:45:08;13.50;99.90
24460;DHT22;12630;50.860;5.714;2022-10-16T05:47:36;13.50;99.90
24460;DHT22;12630;50.860;5.714;2022-10-16T05:50:04;13.50;99.90
24460;DHT22;12630;50.860;5.714;2022-10-16T05:52:33;13.60;99.90
24460;DHT22;12630;50.860;5.714;2022-10-16T05:55:00;13.60;99.90
24460;DHT22;12630;50.860;5.714;2022-10-16T05:57:27;13.70;99.90
24460;DHT22;12630;50.860;5.714;2022-10-16T05:59:55;13.60;99.90
24460;DHT22;12630;50.860;5.714;2022-10-16T06:02:22;13.60;99.90
24460;DHT22;12630;50.860;5.714;2022-10-16T06:04:52;13.50;99.90
24460;DHT22;12630;50.860;5.714;2022-10-16T06:07:20;13.50;99.90
24460;DHT22;12630;50.860;5.714;2022-10-16T06:09:50;13.40;99.90
24460;DHT22;12630;50.860;5.714;2022-10-16T06:12:17;13.40;99.90
24460;DHT22;12630;50.860;5.714;2022-10-16T06:14:45;13.40;99.90
24460;DHT22;12630;50.860;5.714;2022-10-16T06:17:13;13.40;99.90
24460;DHT22;12630;50.860;5.714;2022-10-16T06:19:40;13.30;99.90
24460;DHT22;12630;50.860;5.714;2022-10-16T06:22:07;13.30;99.90
24460;DHT22;12630;50.860;5.714;2022-10-16T06:24:35;13.30;99.90
24460;DHT22;12630;50.860;5.714;2022-10-16T06:27:04;13.30;99.90
24460;DHT22;12630;50.860;5.714;2022-10-16T06:29:32;13.40;99.90
24460;DHT22;12630;50.860;5.714;2022-10-16T06:31:59;13.40;99.90
24460;DHT22;12630;50.860;5.714;2022-10-16T06:34:27;13.30;99.90
24460;DHT22;12630;50.860;5.714;2022-10-16T06:36:54;13.40;99.90
24460;DHT22;12630;50.860;5.714;2022-10-16T06:39:21;13.40;99.90
24460;DHT22;12630;50.860;5.714;2022-10-16T06:41:48;13.40;99.90
24460;DHT22;12630;50.860;5.714;2022-10-16T06:44:17;13.40;99.90
24460;DHT22;12630;50.860;5.714;2022-10-16T06:46:44;13.40;99.90
24460;DHT22;12630;50.860;5.714;2022-10-16T06:49:11;13.30;99.90
24460;DHT22;12630;50.860;5.714;2022-10-16T06:51:39;13.40;99.90
24460;DHT22;12630;50.860;5.714;2022-10-16T06:54:07;13.40;99.90
24460;DHT22;12630;50.860;5.714;2022-10-16T06:56:35;13.30;99.90
24460;DHT22;12630;50.860;5.714;2022-10-16T06:59:02;13.50;99.90
24460;DHT22;12630;50.860;5.714;2022-10-16T07:01:31;13.70;99.90
24460;DHT22;12630;50.860;5.714;2022-10-16T07:04:00;13.90;99.90
24460;DHT22;12630;50.860;5.714;2022-10-16T07:06:31;14.10;99.90
24460;DHT22;12630;50.860;5.714;2022-10-16T07:09:02;14.00;99.90
24460;DHT22;12630;50.860;5.714;2022-10-16T07:11:30;13.80;99.90
24460;DHT22;12630;50.860;5.714;2022-10-16T07:13:58;14.30;99.90
24460;DHT22;12630;50.860;5.714;2022-10-16T07:16:28;15.10;55.50
24460;DHT22;12630;50.860;5.714;2022-10-16T07:18:57;15.80;1.00
24460;DHT22;12630;50.860;5.714;2022-10-16T07:21:27;16.30;1.00
24460;DHT22;12630;50.860;5.714;2022-10-16T07:23:56;16.90;1.00
24460;DHT22;12630;50.860;5.714;2022-10-16T07:26:25;17.40;48.60
24460;DHT22;12630;50.860;5.714;2022-10-16T07:28:52;17.40;99.90
24460;DHT22;12630;50.860;5.714;2022-10-16T07:31:21;17.40;99.90
24460;DHT22;12630;50.860;5.714;2022-10-16T07:33:49;17.60;81.60
24460;DHT22;12630;50.860;5.714;2022-10-16T07:36:19;17.90;1.00
24460;DHT22;12630;50.860;5.714;2022-10-16T07:38:46;17.90;99.90
24460;DHT22;12630;50.860;5.714;2022-10-16T07:41:15;18.50;1.00
24460;DHT22;12630;50.860;5.714;2022-10-16T07:43:46;18.70;1.00
24460;DHT22;12630;50.860;5.714;2022-10-16T07:46:14;19.10;99.90
24460;DHT22;12630;50.860;5.714;2022-10-16T07:48:42;19.10;99.90
24460;DHT22;12630;50.860;5.714;2022-10-16T07:51:13;19.30;1.00
24460;DHT22;12630;50.860;5.714;2022-10-16T07:53:42;19.60;1.00
24460;DHT22;12630;50.860;5.714;2022-10-16T07:56:10;19.60;99.90
24460;DHT22;12630;50.860;5.714;2022-10-16T07:58:37;19.60;1.00
24460;DHT22;12630;50.860;5.714;2022-10-16T08:01:06;19.80;1.00
24460;DHT22;12630;50.860;5.714;2022-10-16T08:03:34;19.50;1.00
24460;DHT22;12630;50.860;5.714;2022-10-16T08:06:03;19.60;1.00
24460;DHT22;12630;50.860;5.714;2022-10-16T08:08:31;20.10;99.90
24460;DHT22;12630;50.860;5.714;2022-10-16T08:10:59;20.30;18.40
24460;DHT22;12630;50.860;5.714;2022-10-16T08:13:29;20.70;1.00
24460;DHT22;12630;50.860;5.714;2022-10-16T08:15:57;20.70;99.90
24460;DHT22;12630;50.860;5.714;2022-10-16T08:18:24;20.20;99.90
24460;DHT22;12630;50.860;5.714;2022-10-16T08:20:56;20.70;99.90
24460;DHT22;12630;50.860;5.714;2022-10-16T08:23:24;20.80;99.90
24460;DHT22;12630;50.860;5.714;2022-10-16T08:25:52;21.00;1.00
24460;DHT22;12630;50.860;5.714;2022-10-16T08:28:22;21.40;1.00
24460;DHT22;12630;50.860;5.714;2022-10-16T08:30:49;21.90;99.90
24460;DHT22;12630;50.860;5.714;2022-10-16T08:33:17;21.00;99.90
24460;DHT22;12630;50.860;5.714;2022-10-16T08:35:50;21.50;99.90
24460;DHT22;12630;50.860;5.714;2022-10-16T08:38:19;21.60;99.90
24460;DHT22;12630;50.860;5.714;2022-10-16T08:40:47;22.50;1.00
24460;DHT22;12630;50.860;5.714;2022-10-16T08:43:45;21.90;1.00
24460;DHT22;12630;50.860;5.714;2022-10-16T08:46:28;22.20;1.00
24460;DHT22;12630;50.860;5.714;2022-10-16T08:49:01;23.10;1.00
24460;DHT22;12630;50.860;5.714;2022-10-16T08:51:30;22.80;99.90
24460;DHT22;12630;50.860;5.714;2022-10-16T08:53:59;22.90;99.90
24460;DHT22;12630;50.860;5.714;2022-10-16T08:56:28;23.30;99.90
24460;DHT22;12630;50.860;5.714;2022-10-16T08:58:58;23.90;42.00
24460;DHT22;12630;50.860;5.714;2022-10-16T09:01:35;22.60;9.70
24460;DHT22;12630;50.860;5.714;2022-10-16T09:07:14;22.40;1.00
24460;DHT22;12630;50.860;5.714;2022-10-16T09:09:56;22.10;1.00
24460;DHT22;12630;50.860;5.714;2022-10-16T09:12:33;22.30;1.00
24460;DHT22;12630;50.860;5.714;2022-10-16T09:15:17;22.80;1.00
24460;DHT22;12630;50.860;5.714;2022-10-16T09:17:54;22.90;1.00
24460;DHT22;12630;50.860;5.714;2022-10-16T09:20:32;22.90;1.00
24460;DHT22;12630;50.860;5.714;2022-10-16T09:23:13;22.90;1.00
24460;DHT22;12630;50.860;5.714;2022-10-16T09:25:44;22.70;1.00
24460;DHT22;12630;50.860;5.714;2022-10-16T09:28:11;22.00;1.00
24460;DHT22;12630;50.860;5.714;2022-10-16T09:30:40;22.50;1.00
24460;DHT22;12630;50.860;5.714;2022-10-16T09:33:08;22.80;1.00
24460;DHT22;12630;50.860;5.714;2022-10-16T09:35:38;23.10;1.00
24460;DHT22;12630;50.860;5.714;2022-10-16T09:38:07;23.40;1.00
24460;DHT22;12630;50.860;5.714;2022-10-16T09:40:37;24.00;1.00
24460;DHT22;12630;50.860;5.714;2022-10-16T09:43:18;23.20;1.00
24460;DHT22;12630;50.860;5.714;2022-10-16T09:45:56;22.70;1.00
24460;DHT22;12630;50.860;5.714;2022-10-16T09:48:26;22.70;1.00
24460;DHT22;12630;50.860;5.714;2022-10-16T09:50:59;21.70;1.00
24460;DHT22;12630;50.860;5.714;2022-10-16T09:53:38;20.30;1.00
24460;DHT22;12630;50.860;5.714;2022-10-16T09:56:06;19.30;1.00
24460;DHT22;12630;50.860;5.714;2022-10-16T09:58:33;18.80;1.00
24460;DHT22;12630;50.860;5.714;2022-10-16T10:01:02;18.60;1.00
24460;DHT22;12630;50.860;5.714;2022-10-16T10:03:37;18.60;1.00
24460;DHT22;12630;50.860;5.714;2022-10-16T10:06:24;18.70;1.00
24460;DHT22;12630;50.860;5.714;2022-10-16T10:09:17;19.00;1.00
24460;DHT22;12630;50.860;5.714;2022-10-16T10:11:52;20.80;1.00
24460;DHT22;12630;50.860;5.714;2022-10-16T10:14:22;22.40;1.00
24460;DHT22;12630;50.860;5.714;2022-10-16T10:16:53;22.80;1.00
24460;DHT22;12630;50.860;5.714;2022-10-16T10:19:28;22.60;1.00
24460;DHT22;12630;50.860;5.714;2022-10-16T10:21:55;23.20;1.00
24460;DHT22;12630;50.860;5.714;2022-10-16T10:24:23;22.70;1.00
24460;DHT22;12630;50.860;5.714;2022-10-16T10:26:56;22.70;1.00
24460;DHT22;12630;50.860;5.714;2022-10-16T10:29:41;22.60;1.00
24460;DHT22;12630;50.860;5.714;2022-10-16T10:32:21;22.80;1.00
24460;DHT22;12630;50.860;5.714;2022-10-16T10:35:01;23.20;1.00
24460;DHT22;12630;50.860;5.714;2022-10-16T10:37:41;23.10;1.00
24460;DHT22;12630;50.860;5.714;2022-10-16T10:40:21;23.50;1.00
24460;DHT22;12630;50.860;5.714;2022-10-16T10:42:57;23.70;1.00
24460;DHT22;12630;50.860;5.714;2022-10-16T10:45:30;23.10;1.00
24460;DHT22;12630;50.860;5.714;2022-10-16T10:51:05;22.60;1.00
24460;DHT22;12630;50.860;5.714;2022-10-16T10:53:41;23.00;1.00
24460;DHT22;12630;50.860;5.714;2022-10-16T10:56:20;23.00;1.00
24460;DHT22;12630;50.860;5.714;2022-10-16T10:59:00;23.10;1.00
24460;DHT22;12630;50.860;5.714;2022-10-16T11:01:34;22.80;99.90
24460;DHT22;12630;50.860;5.714;2022-10-16T11:07:05;21.90;1.00
24460;DHT22;12630;50.860;5.714;2022-10-16T11:09:36;21.90;99.90
24460;DHT22;12630;50.860;5.714;2022-10-16T11:12:09;22.10;99.90
24460;DHT22;12630;50.860;5.714;2022-10-16T11:14:41;22.40;99.90
24460;DHT22;12630;50.860;5.714;2022-10-16T11:17:13;22.80;99.90
24460;DHT22;12630;50.860;5.714;2022-10-16T11:19:46;23.10;99.90
24460;DHT22;12630;50.860;5.714;2022-10-16T11:22:20;23.30;99.90
24460;DHT22;12630;50.860;5.714;2022-10-16T11:24:54;22.90;99.90
24460;DHT22;12630;50.860;5.714;2022-10-16T11:27:27;22.60;99.90
24460;DHT22;12630;50.860;5.714;2022-10-16T11:29:59;22.80;99.90
24460;DHT22;12630;50.860;5.714;2022-10-16T11:32:30;23.10;99.90
24460;DHT22;12630;50.860;5.714;2022-10-16T11:35:08;23.60;99.90
24460;DHT22;12630;50.860;5.714;2022-10-16T11:37:42;23.50;99.90
24460;DHT22;12630;50.860;5.714;2022-10-16T11:40:21;23.10;99.90
24460;DHT22;12630;50.860;5.714;2022-10-16T11:42:54;23.10;99.90
24460;DHT22;12630;50.860;5.714;2022-10-16T11:45:28;22.80;99.90
24460;DHT22;12630;50.860;5.714;2022-10-16T11:48:02;22.40;99.90
24460;DHT22;12630;50.860;5.714;2022-10-16T11:50:40;21.80;99.90
24460;DHT22;12630;50.860;5.714;2022-10-16T11:53:15;21.40;99.90
24460;DHT22;12630;50.860;5.714;2022-10-16T11:55:46;21.20;99.90
24460;DHT22;12630;50.860;5.714;2022-10-16T11:58:21;20.90;99.90
24460;DHT22;12630;50.860;5.714;2022-10-16T12:00:57;20.70;99.90
24460;DHT22;12630;50.860;5.714;2022-10-16T12:03:29;20.80;99.90
24460;DHT22;12630;50.860;5.714;2022-10-16T12:06:19;21.00;99.90
24460;DHT22;12630;50.860;5.714;2022-10-16T12:08:50;21.10;99.90
24460;DHT22;12630;50.860;5.714;2022-10-16T12:11:31;20.50;99.90
24460;DHT22;12630;50.860;5.714;2022-10-16T12:14:17;20.30;99.90
24460;DHT22;12630;50.860;5.714;2022-10-16T12:16:53;20.20;99.90
24460;DHT22;12630;50.860;5.714;2022-10-16T12:19:21;20.10;99.90
24460;DHT22;12630;50.860;5.714;2022-10-16T12:21:52;20.40;99.90
24460;DHT22;12630;50.860;5.714;2022-10-16T12:24:26;20.70;99.90
24460;DHT22;12630;50.860;5.714;2022-10-16T12:26:55;20.70;99.90
24460;DHT22;12630;50.860;5.714;2022-10-16T12:29:31;21.10;99.90
24460;DHT22;12630;50.860;5.714;2022-10-16T12:31:59;20.90;99.90
24460;DHT22;12630;50.860;5.714;2022-10-16T12:34:28;20.80;99.90
24460;DHT22;12630;50.860;5.714;2022-10-16T12:37:07;21.10;99.90
24460;DHT22;12630;50.860;5.714;2022-10-16T12:39:36;21.10;99.90
24460;DHT22;12630;50.860;5.714;2022-10-16T12:42:05;21.00;99.90
24460;DHT22;12630;50.860;5.714;2022-10-16T12:44:33;20.90;99.90
24460;DHT22;12630;50.860;5.714;2022-10-16T12:47:01;20.80;99.90
24460;DHT22;12630;50.860;5.714;2022-10-16T12:49:36;20.70;99.90
24460;DHT22;12630;50.860;5.714;2022-10-16T12:52:28;20.40;99.90
24460;DHT22;12630;50.860;5.714;2022-10-16T12:55:02;20.20;99.90
24460;DHT22;12630;50.860;5.714;2022-10-16T12:57:39;20.30;99.90
24460;DHT22;12630;50.860;5.714;2022-10-16T13:00:18;20.10;99.90
24460;DHT22;12630;50.860;5.714;2022-10-16T13:03:08;20.00;99.90
24460;DHT22;12630;50.860;5.714;2022-10-16T13:05:47;20.10;99.90
24460;DHT22;12630;50.860;5.714;2022-10-16T13:08:36;20.50;99.90
24460;DHT22;12630;50.860;5.714;2022-10-16T13:11:14;20.40;99.90
24460;DHT22;12630;50.860;5.714;2022-10-16T13:14:05;20.30;99.90
24460;DHT22;12630;50.860;5.714;2022-10-16T13:16:43;20.20;99.90
24460;DHT22;12630;50.860;5.714;2022-10-16T13:19:23;20.30;99.90
24460;DHT22;12630;50.860;5.714;2022-10-16T13:21:59;20.50;99.90
24460;DHT22;12630;50.860;5.714;2022-10-16T13:24:42;20.30;99.90
24460;DHT22;12630;50.860;5.714;2022-10-16T13:27:22;20.30;99.90
24460;DHT22;12630;50.860;5.714;2022-10-16T13:30:01;20.50;99.90
24460;DHT22;12630;50.860;5.714;2022-10-16T13:32:30;20.70;1.00
24460;DHT22;12630;50.860;5.714;2022-10-16T13:34:58;20.70;99.90
24460;DHT22;12630;50.860;5.714;2022-10-16T13:37:26;20.70;99.90
24460;DHT22;12630;50.860;5.714;2022-10-16T13:40:12;20.80;99.90
24460;DHT22;12630;50.860;5.714;2022-10-16T13:42:45;21.00;99.90
24460;DHT22;12630;50.860;5.714;2022-10-16T13:45:20;20.90;99.90
24460;DHT22;12630;50.860;5.714;2022-10-16T13:47:48;20.80;99.90
24460;DHT22;12630;50.860;5.714;2022-10-16T13:50:16;20.50;99.90
24460;DHT22;12630;50.860;5.714;2022-10-16T13:52:44;20.40;99.90
24460;DHT22;12630;50.860;5.714;2022-10-16T13:55:14;20.40;99.90
24460;DHT22;12630;50.860;5.714;2022-10-16T13:57:42;20.30;99.90
24460;DHT22;12630;50.860;5.714;2022-10-16T14:00:21;20.20;99.90
24460;DHT22;12630;50.860;5.714;2022-10-16T14:02:53;20.10;1.00
24460;DHT22;12630;50.860;5.714;2022-10-16T14:05:22;20.00;1.00
24460;DHT22;12630;50.860;5.714;2022-10-16T14:07:50;20.00;1.00
24460;DHT22;12630;50.860;5.714;2022-10-16T14:10:23;20.00;1.00
24460;DHT22;12630;50.860;5.714;2022-10-16T14:12:58;19.90;1.00
24460;DHT22;12630;50.860;5.714;2022-10-16T14:15:26;20.00;1.00
24460;DHT22;12630;50.860;5.714;2022-10-16T14:17:54;20.00;1.00
24460;DHT22;12630;50.860;5.714;2022-10-16T14:20:25;20.00;1.00
24460;DHT22;12630;50.860;5.714;2022-10-16T14:23:01;19.90;1.00
24460;DHT22;12630;50.860;5.714;2022-10-16T14:25:32;19.80;1.00
24460;DHT22;12630;50.860;5.714;2022-10-16T14:28:02;19.70;1.00
24460;DHT22;12630;50.860;5.714;2022-10-16T14:30:30;19.70;1.00
24460;DHT22;12630;50.860;5.714;2022-10-16T14:32:59;19.50;1.00
24460;DHT22;12630;50.860;5.714;2022-10-16T14:35:29;19.50;1.00
24460;DHT22;12630;50.860;5.714;2022-10-16T14:37:58;19.40;1.00
24460;DHT22;12630;50.860;5.714;2022-10-16T14:40:28;19.50;1.00
24460;DHT22;12630;50.860;5.714;2022-10-16T14:42:58;19.50;1.00
24460;DHT22;12630;50.860;5.714;2022-10-16T14:45:26;19.60;1.00
24460;DHT22;12630;50.860;5.714;2022-10-16T14:47:56;19.60;1.00
24460;DHT22;12630;50.860;5.714;2022-10-16T14:50:24;19.60;1.00
24460;DHT22;12630;50.860;5.714;2022-10-16T14:52:52;19.50;1.00
24460;DHT22;12630;50.860;5.714;2022-10-16T14:55:19;19.50;1.00
24460;DHT22;12630;50.860;5.714;2022-10-16T14:57:47;19.50;1.00
24460;DHT22;12630;50.860;5.714;2022-10-16T15:00:20;19.50;1.00
24460;DHT22;12630;50.860;5.714;2022-10-16T15:02:49;19.60;1.00
24460;DHT22;12630;50.860;5.714;2022-10-16T15:05:19;19.50;1.00
24460;DHT22;12630;50.860;5.714;2022-10-16T15:07:48;19.50;1.00
24460;DHT22;12630;50.860;5.714;2022-10-16T15:10:16;19.40;1.00
24460;DHT22;12630;50.860;5.714;2022-10-16T15:12:44;19.40;1.00
24460;DHT22;12630;50.860;5.714;2022-10-16T15:15:35;19.40;1.00
24460;DHT22;12630;50.860;5.714;2022-10-16T15:18:03;19.40;1.00
24460;DHT22;12630;50.860;5.714;2022-10-16T15:20:32;19.40;1.00
24460;DHT22;12630;50.860;5.714;2022-10-16T15:23:01;19.30;1.00
24460;DHT22;12630;50.860;5.714;2022-10-16T15:25:35;19.30;1.00
24460;DHT22;12630;50.860;5.714;2022-10-16T15:28:05;19.30;1.00
24460;DHT22;12630;50.860;5.714;2022-10-16T15:30:35;19.30;1.00
24460;DHT22;12630;50.860;5.714;2022-10-16T15:33:03;19.30;1.00
24460;DHT22;12630;50.860;5.714;2022-10-16T15:35:31;19.30;1.00
24460;DHT22;12630;50.860;5.714;2022-10-16T15:37:59;19.20;1.00
24460;DHT22;12630;50.860;5.714;2022-10-16T15:40:26;19.20;1.00
24460;DHT22;12630;50.860;5.714;2022-10-16T15:42:53;19.10;1.00
24460;DHT22;12630;50.860;5.714;2022-10-16T15:45:20;19.00;9.70
24460;DHT22;12630;50.860;5.714;2022-10-16T15:47:49;19.00;99.90
24460;DHT22;12630;50.860;5.714;2022-10-16T15:50:16;18.90;99.90
24460;DHT22;12630;50.860;5.714;2022-10-16T15:52:44;18.90;99.90
24460;DHT22;12630;50.860;5.714;2022-10-16T15:55:12;18.80;99.90
24460;DHT22;12630;50.860;5.714;2022-10-16T15:57:40;18.70;1.00
24460;DHT22;12630;50.860;5.714;2022-10-16T16:00:12;18.60;1.00
24460;DHT22;12630;50.860;5.714;2022-10-16T16:02:40;18.60;1.00
24460;DHT22;12630;50.860;5.714;2022-10-16T16:05:10;18.50;99.90
24460;DHT22;12630;50.860;5.714;2022-10-16T16:07:37;18.40;99.90